sensor_id;sensor_type;location;lat;lon;timestamp;P1;durP1;ratioP1;P2;durP2;ratioP2
15693;SDS011;7947;48.834;9.132;2024-03-08T00:01:28;21.07;;;11.47;;
15693;SDS011;7947;48.834;9.132;2024-03-08T00:04:33;21.37;;;11.33;;
15693;SDS011;7947;48.834;9.132;2024-03-08T00:07:36;22.43;;;12.43;;
15693;SDS011;7947;48.834;9.132;2024-03-08T00:10:40;25.10;;;11.60;;
15693;SDS011;7947;48.834;9.132;2024-03-08T00:13:43;21.53;;;11.57;;
15693;SDS011;7947;48.834;9.132;2024-03-08T00:16:46;20.60;;;11.50;;
15693;SDS011;7947;48.834;9.132;2024-03-08T00:19:51;20.80;;;11.77;;
15693;SDS011;7947;48.834;9.132;2024-03-08T00:22:54;22.77;;;11.77;;
15693;SDS011;7947;48.834;9.132;2024-03-08T00:25:59;19.60;;;10.47;;
15693;SDS011;7947;48.834;9.132;2024-03-08T00:29:02;20.23;;;10.63;;
15693;SDS011;7947;48.834;9.132;2024-03-08T00:32:06;17.47;;;10.60;;
15693;SDS011;7947;48.834;9.132;2024-03-08T00:35:11;20.77;;;10.50;;
15693;SDS011;7947;48.834;9.132;2024-03-08T00:38:14;17.60;;;10.50;;
15693;SDS011;7947;48.834;9.132;2024-03-08T00:41:17;20.83;;;10.63;;
15693;SDS011;7947;48.834;9.132;2024-03-08T00:44:20;20.43;;;10.23;;
15693;SDS011;7947;48.834;9.132;2024-03-08T00:47:23;18.63;;;11.13;;
15693;SDS011;7947;48.834;9.132;2024-03-08T00:50:27;19.57;;;10.70;;
15693;SDS011;7947;48.834;9.132;2024-03-08T00:53:30;21.03;;;10.77;;
15693;SDS011;7947;48.834;9.132;2024-03-08T00:56:33;18.13;;;10.37;;
15693;SDS011;7947;48.834;9.132;2024-03-08T00:59:37;21.70;;;10.77;;
15693;SDS011;7947;48.834;9.132;2024-03-08T01:02:41;20.83;;;11.57;;
15693;SDS011;7947;48.834;9.132;2024-03-08T01:05:45;18.77;;;10.77;;
15693;SDS011;7947;48.834;9.132;2024-03-08T01:08:48;19.53;;;10.40;;
15693;SDS011;7947;48.834;9.132;2024-03-08T01:11:53;18.33;;;10.43;;
15693;SDS011;7947;48.834;9.132;2024-03-08T01:14:56;18.33;;;10.27;;
15693;SDS011;7947;48.834;9.132;2024-03-08T01:18:00;20.80;;;11.00;;
15693;SDS011;7947;48.834;9.132;2024-03-08T01:21:04;16.37;;;9.93;;
15693;SDS011;7947;48.834;9.132;2024-03-08T01:24:08;20.67;;;10.33;;
15693;SDS011;7947;48.834;9.132;2024-03-08T01:27:11;18.60;;;10.77;;
15693;SDS011;7947;48.834;9.132;2024-03-08T01:30:14;17.37;;;10.47;;
15693;SDS011;7947;48.834;9.132;2024-03-08T01:33:19;20.93;;;10.80;;
15693;SDS011;7947;48.834;9.132;2024-03-08T01:36:25;15.97;;;9.47;;
15693;SDS011;7947;48.834;9.132;2024-03-08T01:39:28;19.67;;;11.10;;
15693;SDS011;7947;48.834;9.132;2024-03-08T01:42:31;16.90;;;9.23;;
15693;SDS011;7947;48.834;9.132;2024-03-08T01:45:34;15.87;;;10.07;;
15693;SDS011;7947;48.834;9.132;2024-03-08T01:48:37;17.67;;;9.90;;
15693;SDS011;7947;48.834;9.132;2024-03-08T01:51:41;18.40;;;10.60;;
15693;SDS011;7947;48.834;9.132;2024-03-08T01:54:44;18.50;;;11.07;;
15693;SDS011;7947;48.834;9.132;2024-03-08T01:57:47;21.70;;;11.27;;
15693;SDS011;7947;48.834;9.132;2024-03-08T02:00:50;18.50;;;10.47;;
15693;SDS011;7947;48.834;9.132;2024-03-08T02:03:55;18.07;;;10.97;;
15693;SDS011;7947;48.834;9.132;2024-03-08T02:07:00;17.57;;;10.07;;
15693;SDS011;7947;48.834;9.132;2024-03-08T02:10:02;17.97;;;9.87;;
15693;SDS011;7947;48.834;9.132;2024-03-08T02:13:06;20.90;;;9.90;;
15693;SDS011;7947;48.834;9.132;2024-03-08T02:16:09;20.67;;;10.43;;
15693;SDS011;7947;48.834;9.132;2024-03-08T02:19:11;19.70;;;10.67;;
15693;SDS011;7947;48.834;9.132;2024-03-08T02:22:16;18.87;;;10.73;;
15693;SDS011;7947;48.834;9.132;2024-03-08T02:25:19;18.80;;;11.20;;
15693;SDS011;7947;48.834;9.132;2024-03-08T02:28:22;19.67;;;10.30;;
15693;SDS011;7947;48.834;9.132;2024-03-08T02:31:26;18.57;;;9.60;;
15693;SDS011;7947;48.834;9.132;2024-03-08T02:34:29;13.87;;;8.50;;
15693;SDS011;7947;48.834;9.132;2024-03-08T02:37:34;18.50;;;9.67;;
15693;SDS011;7947;48.834;9.132;2024-03-08T02:40:37;16.77;;;9.20;;
15693;SDS011;7947;48.834;9.132;2024-03-08T02:43:39;20.37;;;9.70;;
15693;SDS011;7947;48.834;9.132;2024-03-08T02:46:42;16.80;;;9.77;;
15693;SDS011;7947;48.834;9.132;2024-03-08T02:49:45;20.33;;;9.13;;
15693;SDS011;7947;48.834;9.132;2024-03-08T02:52:49;18.37;;;9.37;;
15693;SDS011;7947;48.834;9.132;2024-03-08T02:55:52;19.20;;;9.73;;
15693;SDS011;7947;48.834;9.132;2024-03-08T02:58:54;18.73;;;10.23;;
15693;SDS011;7947;48.834;9.132;2024-03-08T03:01:57;20.17;;;10.00;;
15693;SDS011;7947;48.834;9.132;2024-03-08T03:05:00;15.30;;;9.07;;
15693;SDS011;7947;48.834;9.132;2024-03-08T03:08:08;17.20;;;9.70;;
15693;SDS011;7947;48.834;9.132;2024-03-08T03:11:11;21.00;;;10.20;;
15693;SDS011;7947;48.834;9.132;2024-03-08T03:14:15;17.47;;;9.67;;
15693;SDS011;7947;48.834;9.132;2024-03-08T03:17:18;21.07;;;10.07;;
15693;SDS011;7947;48.834;9.132;2024-03-08T03:20:21;19.63;;;9.63;;
15693;SDS011;7947;48.834;9.132;2024-03-08T03:23:29;15.87;;;9.33;;
15693;SDS011;7947;48.834;9.132;2024-03-08T03:26:34;18.07;;;8.80;;
15693;SDS011;7947;48.834;9.132;2024-03-08T03:29:38;19.73;;;10.10;;
15693;SDS011;7947;48.834;9.132;2024-03-08T03:32:43;16.90;;;9.37;;
15693;SDS011;7947;48.834;9.132;2024-03-08T03:35:48;18.20;;;9.83;;
15693;SDS011;7947;48.834;9.132;2024-03-08T03:38:54;17.90;;;9.13;;
15693;SDS011;7947;48.834;9.132;2024-03-08T03:42:06;16.83;;;8.57;;
15693;SDS011;7947;48.834;9.132;2024-03-08T03:45:09;17.40;;;9.70;;
15693;SDS011;7947;48.834;9.132;2024-03-08T03:48:12;17.00;;;8.97;;
15693;SDS011;7947;48.834;9.132;2024-03-08T03:51:15;18.23;;;9.13;;
15693;SDS011;7947;48.834;9.132;2024-03-08T03:54:19;15.07;;;9.23;;
15693;SDS011;7947;48.834;9.132;2024-03-08T03:57:22;15.47;;;8.27;;
15693;SDS011;7947;48.834;9.132;2024-03-08T04:00:24;15.23;;;9.23;;
15693;SDS011;7947;48.834;9.132;2024-03-08T04:03:28;17.40;;;9.20;;
15693;SDS011;7947;48.834;9.132;2024-03-08T04:06:31;14.73;;;8.77;;
15693;SDS011;7947;48.834;9.132;2024-03-08T04:09:36;13.90;;;8.53;;
15693;SDS011;7947;48.834;9.132;2024-03-08T04:12:38;17.37;;;9.13;;
15693;SDS011;7947;48.834;9.132;2024-03-08T04:15:41;15.67;;;8.40;;
15693;SDS011;7947;48.834;9.132;2024-03-08T04:18:50;17.47;;;9.07;;
15693;SDS011;7947;48.834;9.132;2024-03-08T04:21:52;18.27;;;9.03;;
15693;SDS011;7947;48.834;9.132;2024-03-08T04:24:57;17.33;;;9.63;;
15693;SDS011;7947;48.834;9.132;2024-03-08T04:27:59;16.77;;;8.80;;
15693;SDS011;7947;48.834;9.132;2024-03-08T04:31:02;17.37;;;10.13;;
15693;SDS011;7947;48.834;9.132;2024-03-08T04:34:05;16.53;;;8.63;;
15693;SDS011;7947;48.834;9.132;2024-03-08T04:37:08;15.97;;;8.40;;
15693;SDS011;7947;48.834;9.132;2024-03-08T04:40:16;15.57;;;8.47;;
15693;SDS011;7947;48.834;9.132;2024-03-08T04:43:20;18.93;;;9.63;;
15693;SDS011;7947;48.834;9.132;2024-03-08T04:46:23;19.80;;;9.60;;
15693;SDS011;7947;48.834;9.132;2024-03-08T04:49:25;17.37;;;9.20;;
15693;SDS011;7947;48.834;9.132;2024-03-08T04:52:29;17.50;;;10.43;;
15693;SDS011;7947;48.834;9.132;2024-03-08T04:55:33;17.53;;;9.97;;
15693;SDS011;7947;48.834;9.132;2024-03-08T04:58:36;17.90;;;9.43;;
15693;SDS011;7947;48.834;9.132;2024-03-08T05:01:39;18.97;;;10.07;;
15693;SDS011;7947;48.834;9.132;2024-03-08T05:04:43;18.93;;;9.90;;
15693;SDS011;7947;48.834;9.132;2024-03-08T05:07:48;20.23;;;9.97;;
15693;SDS011;7947;48.834;9.132;2024-03-08T05:10:53;17.33;;;10.27;;
15693;SDS011;7947;48.834;9.132;2024-03-08T05:13:58;21.23;;;10.60;;
15693;SDS011;7947;48.834;9.132;2024-03-08T05:17:02;19.43;;;10.07;;
15693;SDS011;7947;48.834;9.132;2024-03-08T05:20:08;20.40;;;11.03;;
15693;SDS011;7947;48.834;9.132;2024-03-08T05:23:15;18.97;;;9.90;;
15693;SDS011;7947;48.834;9.132;2024-03-08T05:31:05;17.67;;;9.83;;
15693;SDS011;7947;48.834;9.132;2024-03-08T05:34:09;18.63;;;10.30;;
15693;SDS011;7947;48.834;9.132;2024-03-08T05:37:16;20.83;;;11.30;;
15693;SDS011;7947;48.834;9.132;2024-03-08T05:40:22;20.20;;;10.67;;
15693;SDS011;7947;48.834;9.132;2024-03-08T05:43:27;22.93;;;10.43;;
15693;SDS011;7947;48.834;9.132;2024-03-08T05:46:33;17.53;;;11.43;;
15693;SDS011;7947;48.834;9.132;2024-03-08T05:49:38;21.60;;;11.17;;
15693;SDS011;7947;48.834;9.132;2024-03-08T05:52:41;17.93;;;10.93;;
15693;SDS011;7947;48.834;9.132;2024-03-08T05:55:45;17.63;;;10.80;;
15693;SDS011;7947;48.834;9.132;2024-03-08T05:58:49;24.50;;;11.07;;
15693;SDS011;7947;48.834;9.132;2024-03-08T06:01:55;22.43;;;10.27;;
15693;SDS011;7947;48.834;9.132;2024-03-08T06:04:59;19.87;;;10.60;;
15693;SDS011;7947;48.834;9.132;2024-03-08T06:08:04;26.33;;;10.60;;
15693;SDS011;7947;48.834;9.132;2024-03-08T06:11:09;20.63;;;10.53;;
15693;SDS011;7947;48.834;9.132;2024-03-08T06:14:13;21.70;;;11.53;;
15693;SDS011;7947;48.834;9.132;2024-03-08T06:17:21;22.47;;;11.27;;
15693;SDS011;7947;48.834;9.132;2024-03-08T06:20:27;17.50;;;9.80;;
15693;SDS011;7947;48.834;9.132;2024-03-08T06:23:32;22.90;;;10.53;;
15693;SDS011;7947;48.834;9.132;2024-03-08T06:26:36;18.93;;;10.97;;
15693;SDS011;7947;48.834;9.132;2024-03-08T06:29:40;20.30;;;10.50;;
15693;SDS011;7947;48.834;9.132;2024-03-08T06:32:45;17.57;;;10.30;;
15693;SDS011;7947;48.834;9.132;2024-03-08T06:35:49;20.20;;;9.13;;
15693;SDS011;7947;48.834;9.132;2024-03-08T06:38:54;20.83;;;10.97;;
15693;SDS011;7947;48.834;9.132;2024-03-08T06:42:01;20.03;;;10.47;;
15693;SDS011;7947;48.834;9.132;2024-03-08T06:45:07;25.70;;;11.53;;
15693;SDS011;7947;48.834;9.132;2024-03-08T06:48:13;18.30;;;10.93;;
15693;SDS011;7947;48.834;9.132;2024-03-08T06:51:20;24.20;;;11.37;;
15693;SDS011;7947;48.834;9.132;2024-03-08T06:54:26;24.43;;;11.20;;
15693;SDS011;7947;48.834;9.132;2024-03-08T06:57:30;22.17;;;11.37;;
15693;SDS011;7947;48.834;9.132;2024-03-08T07:00:35;19.63;;;12.17;;
15693;SDS011;7947;48.834;9.132;2024-03-08T07:03:45;21.10;;;11.80;;
15693;SDS011;7947;48.834;9.132;2024-03-08T07:06:50;21.57;;;11.00;;
15693;SDS011;7947;48.834;9.132;2024-03-08T07:09:54;18.07;;;11.27;;
15693;SDS011;7947;48.834;9.132;2024-03-08T07:12:59;17.73;;;10.27;;
15693;SDS011;7947;48.834;9.132;2024-03-08T07:16:05;21.20;;;11.13;;
15693;SDS011;7947;48.834;9.132;2024-03-08T07:19:19;22.10;;;11.77;;
15693;SDS011;7947;48.834;9.132;2024-03-08T07:22:23;19.00;;;11.10;;
15693;SDS011;7947;48.834;9.132;2024-03-08T07:25:27;21.37;;;10.80;;
15693;SDS011;7947;48.834;9.132;2024-03-08T07:28:32;21.33;;;11.03;;
15693;SDS011;7947;48.834;9.132;2024-03-08T07:31:37;18.90;;;11.00;;
15693;SDS011;7947;48.834;9.132;2024-03-08T07:35:00;23.27;;;11.03;;
15693;SDS011;7947;48.834;9.132;2024-03-08T07:38:05;19.20;;;10.83;;
15693;SDS011;7947;48.834;9.132;2024-03-08T07:41:09;21.70;;;11.27;;
15693;SDS011;7947;48.834;9.132;2024-03-08T07:44:15;18.23;;;10.17;;
15693;SDS011;7947;48.834;9.132;2024-03-08T07:47:18;19.50;;;10.03;;
15693;SDS011;7947;48.834;9.132;2024-03-08T07:50:27;21.10;;;10.83;;
15693;SDS011;7947;48.834;9.132;2024-03-08T07:53:30;20.83;;;10.40;;
15693;SDS011;7947;48.834;9.132;2024-03-08T07:56:33;21.57;;;11.60;;
15693;SDS011;7947;48.834;9.132;2024-03-08T07:59:39;20.33;;;11.10;;
15693;SDS011;7947;48.834;9.132;2024-03-08T08:02:42;18.57;;;10.00;;
15693;SDS011;7947;48.834;9.132;2024-03-08T08:05:46;18.37;;;10.10;;
15693;SDS011;7947;48.834;9.132;2024-03-08T08:08:50;22.03;;;10.90;;
15693;SDS011;7947;48.834;9.132;2024-03-08T08:11:53;18.27;;;11.03;;
15693;SDS011;7947;48.834;9.132;2024-03-08T08:14:57;21.60;;;10.57;;
15693;SDS011;7947;48.834;9.132;2024-03-08T08:18:00;19.97;;;10.47;;
15693;SDS011;7947;48.834;9.132;2024-03-08T08:21:05;19.83;;;11.03;;
15693;SDS011;7947;48.834;9.132;2024-03-08T08:24:08;22.20;;;10.23;;
15693;SDS011;7947;48.834;9.132;2024-03-08T08:27:12;20.30;;;11.13;;
15693;SDS011;7947;48.834;9.132;2024-03-08T08:30:15;18.63;;;10.70;;
15693;SDS011;7947;48.834;9.132;2024-03-08T08:33:19;16.33;;;9.93;;
15693;SDS011;7947;48.834;9.132;2024-03-08T08:36:23;21.93;;;10.80;;
15693;SDS011;7947;48.834;9.132;2024-03-08T08:39:26;19.80;;;11.40;;
15693;SDS011;7947;48.834;9.132;2024-03-08T08:42:29;17.17;;;10.00;;
15693;SDS011;7947;48.834;9.132;2024-03-08T08:45:32;21.63;;;10.07;;
15693;SDS011;7947;48.834;9.132;2024-03-08T08:48:35;16.30;;;9.43;;
15693;SDS011;7947;48.834;9.132;2024-03-08T08:51:39;19.17;;;9.60;;
15693;SDS011;7947;48.834;9.132;2024-03-08T08:54:42;18.93;;;10.27;;
15693;SDS011;7947;48.834;9.132;2024-03-08T08:57:51;18.77;;;9.93;;
15693;SDS011;7947;48.834;9.132;2024-03-08T09:00:54;20.63;;;10.47;;
15693;SDS011;7947;48.834;9.132;2024-03-08T09:03:57;24.03;;;11.30;;
15693;SDS011;7947;48.834;9.132;2024-03-08T09:07:02;21.73;;;11.40;;
15693;SDS011;7947;48.834;9.132;2024-03-08T09:10:07;18.53;;;10.73;;
15693;SDS011;7947;48.834;9.132;2024-03-08T09:13:14;19.77;;;10.67;;
15693;SDS011;7947;48.834;9.132;2024-03-08T09:16:31;19.90;;;9.60;;
15693;SDS011;7947;48.834;9.132;2024-03-08T09:19:34;20.00;;;9.93;;
15693;SDS011;7947;48.834;9.132;2024-03-08T09:22:39;19.70;;;10.50;;
15693;SDS011;7947;48.834;9.132;2024-03-08T09:25:42;16.37;;;10.13;;
15693;SDS011;7947;48.834;9.132;2024-03-08T09:28:47;20.50;;;10.07;;
15693;SDS011;7947;48.834;9.132;2024-03-08T09:31:51;18.40;;;11.27;;
15693;SDS011;7947;48.834;9.132;2024-03-08T09:34:54;18.23;;;9.77;;
15693;SDS011;7947;48.834;9.132;2024-03-08T09:37:59;17.53;;;10.20;;
15693;SDS011;7947;48.834;9.132;2024-03-08T09:41:01;18.33;;;10.37;;
15693;SDS011;7947;48.834;9.132;2024-03-08T09:44:06;18.80;;;10.67;;
15693;SDS011;7947;48.834;9.132;2024-03-08T09:47:10;20.17;;;10.73;;
15693;SDS011;7947;48.834;9.132;2024-03-08T09:50:17;19.23;;;9.57;;
15693;SDS011;7947;48.834;9.132;2024-03-08T09:53:23;18.70;;;10.37;;
15693;SDS011;7947;48.834;9.132;2024-03-08T09:56:27;19.93;;;9.70;;
15693;SDS011;7947;48.834;9.132;2024-03-08T09:59:31;20.63;;;10.00;;
15693;SDS011;7947;48.834;9.132;2024-03-08T10:02:49;20.37;;;9.63;;
15693;SDS011;7947;48.834;9.132;2024-03-08T10:05:53;20.17;;;9.23;;
15693;SDS011;7947;48.834;9.132;2024-03-08T10:08:59;16.57;;;9.10;;
15693;SDS011;7947;48.834;9.132;2024-03-08T10:12:02;17.37;;;10.27;;
15693;SDS011;7947;48.834;9.132;2024-03-08T10:15:07;15.60;;;9.73;;
15693;SDS011;7947;48.834;9.132;2024-03-08T10:18:11;15.23;;;9.10;;
15693;SDS011;7947;48.834;9.132;2024-03-08T10:21:14;17.47;;;9.40;;
15693;SDS011;7947;48.834;9.132;2024-03-08T10:24:19;16.83;;;9.37;;
15693;SDS011;7947;48.834;9.132;2024-03-08T10:27:22;20.03;;;9.27;;
15693;SDS011;7947;48.834;9.132;2024-03-08T10:30:26;15.53;;;9.03;;
15693;SDS011;7947;48.834;9.132;2024-03-08T10:33:31;21.10;;;9.70;;
15693;SDS011;7947;48.834;9.132;2024-03-08T10:36:35;16.60;;;9.83;;
15693;SDS011;7947;48.834;9.132;2024-03-08T10:39:40;18.57;;;9.77;;
15693;SDS011;7947;48.834;9.132;2024-03-08T10:42:52;17.87;;;10.00;;
15693;SDS011;7947;48.834;9.132;2024-03-08T10:45:59;21.60;;;10.53;;
15693;SDS011;7947;48.834;9.132;2024-03-08T10:49:12;16.87;;;9.10;;
15693;SDS011;7947;48.834;9.132;2024-03-08T10:52:20;15.17;;;7.87;;
15693;SDS011;7947;48.834;9.132;2024-03-08T10:55:24;17.17;;;9.77;;
15693;SDS011;7947;48.834;9.132;2024-03-08T10:58:30;14.37;;;8.87;;
15693;SDS011;7947;48.834;9.132;2024-03-08T11:01:34;16.03;;;9.43;;
15693;SDS011;7947;48.834;9.132;2024-03-08T11:04:56;19.40;;;9.43;;
15693;SDS011;7947;48.834;9.132;2024-03-08T11:08:06;16.77;;;9.17;;
15693;SDS011;7947;48.834;9.132;2024-03-08T11:11:33;15.43;;;8.67;;
15693;SDS011;7947;48.834;9.132;2024-03-08T11:14:44;15.13;;;9.07;;
15693;SDS011;7947;48.834;9.132;2024-03-08T11:18:02;16.63;;;8.83;;
15693;SDS011;7947;48.834;9.132;2024-03-08T11:21:15;16.90;;;10.07;;
15693;SDS011;7947;48.834;9.132;2024-03-08T11:24:36;16.63;;;9.97;;
15693;SDS011;7947;48.834;9.132;2024-03-08T11:27:58;15.20;;;8.90;;
15693;SDS011;7947;48.834;9.132;2024-03-08T11:31:31;15.00;;;8.77;;
15693;SDS011;7947;48.834;9.132;2024-03-08T11:34:54;16.80;;;9.47;;
15693;SDS011;7947;48.834;9.132;2024-03-08T11:38:00;13.87;;;9.10;;
15693;SDS011;7947;48.834;9.132;2024-03-08T11:41:07;15.13;;;8.93;;
15693;SDS011;7947;48.834;9.132;2024-03-08T11:44:24;15.37;;;9.10;;
15693;SDS011;7947;48.834;9.132;2024-03-08T11:47:35;14.07;;;8.73;;
15693;SDS011;7947;48.834;9.132;2024-03-08T11:50:46;16.57;;;9.63;;
15693;SDS011;7947;48.834;9.132;2024-03-08T11:54:10;17.60;;;9.67;;
15693;SDS011;7947;48.834;9.132;2024-03-08T11:57:23;19.60;;;10.47;;
15693;SDS011;7947;48.834;9.132;2024-03-08T12:00:37;18.03;;;9.90;;
15693;SDS011;7947;48.834;9.132;2024-03-08T12:03:56;18.23;;;10.10;;
15693;SDS011;7947;48.834;9.132;2024-03-08T12:07:03;16.27;;;8.90;;
15693;SDS011;7947;48.834;9.132;2024-03-08T12:10:15;17.93;;;9.53;;
15693;SDS011;7947;48.834;9.132;2024-03-08T12:13:27;20.87;;;9.90;;
15693;SDS011;7947;48.834;9.132;2024-03-08T12:16:37;19.53;;;9.63;;
15693;SDS011;7947;48.834;9.132;2024-03-08T12:19:47;17.47;;;10.23;;
15693;SDS011;7947;48.834;9.132;2024-03-08T12:22:56;17.57;;;10.00;;
15693;SDS011;7947;48.834;9.132;2024-03-08T12:26:10;17.97;;;9.97;;
15693;SDS011;7947;48.834;9.132;2024-03-08T12:29:27;15.97;;;9.93;;
15693;SDS011;7947;48.834;9.132;2024-03-08T12:36:23;22.97;;;10.47;;
15693;SDS011;7947;48.834;9.132;2024-03-08T12:39:31;17.67;;;9.80;;
15693;SDS011;7947;48.834;9.132;2024-03-08T12:42:41;18.33;;;10.30;;
15693;SDS011;7947;48.834;9.132;2024-03-08T12:45:53;20.50;;;11.17;;
15693;SDS011;7947;48.834;9.132;2024-03-08T12:49:02;23.23;;;11.53;;
15693;SDS011;7947;48.834;9.132;2024-03-08T12:52:10;17.40;;;10.37;;
15693;SDS011;7947;48.834;9.132;2024-03-08T12:55:17;21.90;;;11.73;;
15693;SDS011;7947;48.834;9.132;2024-03-08T12:58:23;20.50;;;11.13;;
15693;SDS011;7947;48.834;9.132;2024-03-08T13:01:30;20.30;;;11.13;;
15693;SDS011;7947;48.834;9.132;2024-03-08T13:04:41;18.47;;;9.77;;
15693;SDS011;7947;48.834;9.132;2024-03-08T13:08:00;22.57;;;10.40;;
15693;SDS011;7947;48.834;9.132;2024-03-08T13:11:22;18.80;;;9.30;;
15693;SDS011;7947;48.834;9.132;2024-03-08T13:14:50;16.03;;;9.37;;
15693;SDS011;7947;48.834;9.132;2024-03-08T13:18:10;17.43;;;10.07;;
15693;SDS011;7947;48.834;9.132;2024-03-08T13:21:19;19.10;;;10.33;;
15693;SDS011;7947;48.834;9.132;2024-03-08T13:24:35;18.17;;;9.63;;
15693;SDS011;7947;48.834;9.132;2024-03-08T13:27:50;18.43;;;10.00;;
15693;SDS011;7947;48.834;9.132;2024-03-08T13:30:56;16.60;;;9.83;;
15693;SDS011;7947;48.834;9.132;2024-03-08T13:34:05;19.50;;;10.00;;
15693;SDS011;7947;48.834;9.132;2024-03-08T13:37:43;16.97;;;9.60;;
15693;SDS011;7947;48.834;9.132;2024-03-08T13:40:53;16.27;;;10.27;;
15693;SDS011;7947;48.834;9.132;2024-03-08T13:44:15;16.80;;;10.57;;
15693;SDS011;7947;48.834;9.132;2024-03-08T13:47:37;19.70;;;9.23;;
15693;SDS011;7947;48.834;9.132;2024-03-08T13:50:42;16.83;;;9.60;;
15693;SDS011;7947;48.834;9.132;2024-03-08T13:53:54;19.40;;;10.37;;
15693;SDS011;7947;48.834;9.132;2024-03-08T13:57:01;18.37;;;10.27;;
15693;SDS011;7947;48.834;9.132;2024-03-08T14:00:12;17.03;;;9.77;;
15693;SDS011;7947;48.834;9.132;2024-03-08T14:03:21;17.70;;;9.60;;
15693;SDS011;7947;48.834;9.132;2024-03-08T14:06:30;19.43;;;10.07;;
15693;SDS011;7947;48.834;9.132;2024-03-08T14:09:41;20.43;;;10.27;;
15693;SDS011;7947;48.834;9.132;2024-03-08T14:12:49;19.90;;;10.50;;
15693;SDS011;7947;48.834;9.132;2024-03-08T14:15:57;16.30;;;9.47;;
15693;SDS011;7947;48.834;9.132;2024-03-08T14:19:06;18.63;;;9.97;;
15693;SDS011;7947;48.834;9.132;2024-03-08T14:22:12;18.23;;;8.80;;
15693;SDS011;7947;48.834;9.132;2024-03-08T14:25:17;16.83;;;9.37;;
15693;SDS011;7947;48.834;9.132;2024-03-08T14:28:21;17.97;;;9.83;;
15693;SDS011;7947;48.834;9.132;2024-03-08T14:31:25;17.13;;;9.60;;
15693;SDS011;7947;48.834;9.132;2024-03-08T14:34:29;17.57;;;9.37;;
15693;SDS011;7947;48.834;9.132;2024-03-08T14:37:32;17.67;;;9.83;;
15693;SDS011;7947;48.834;9.132;2024-03-08T14:40:36;19.17;;;10.00;;
15693;SDS011;7947;48.834;9.132;2024-03-08T14:43:41;16.67;;;9.57;;
15693;SDS011;7947;48.834;9.132;2024-03-08T14:46:46;18.73;;;10.10;;
15693;SDS011;7947;48.834;9.132;2024-03-08T14:49:49;16.77;;;9.60;;
15693;SDS011;7947;48.834;9.132;2024-03-08T14:52:52;19.67;;;9.03;;
15693;SDS011;7947;48.834;9.132;2024-03-08T14:55:57;16.42;;;9.15;;
15693;SDS011;7947;48.834;9.132;2024-03-08T14:59:00;18.17;;;10.32;;
15693;SDS011;7947;48.834;9.132;2024-03-08T15:02:03;14.63;;;9.57;;
15693;SDS011;7947;48.834;9.132;2024-03-08T15:05:08;17.02;;;9.65;;
15693;SDS011;7947;48.834;9.132;2024-03-08T15:08:13;18.65;;;10.63;;
15693;SDS011;7947;48.834;9.132;2024-03-08T15:11:23;19.15;;;9.90;;
15693;SDS011;7947;48.834;9.132;2024-03-08T15:14:27;15.20;;;9.82;;
15693;SDS011;7947;48.834;9.132;2024-03-08T15:17:30;15.18;;;9.07;;
15693;SDS011;7947;48.834;9.132;2024-03-08T15:20:33;17.63;;;9.93;;
15693;SDS011;7947;48.834;9.132;2024-03-08T15:23:36;17.80;;;10.73;;
15693;SDS011;7947;48.834;9.132;2024-03-08T15:26:40;18.87;;;10.57;;
15693;SDS011;7947;48.834;9.132;2024-03-08T15:29:44;17.87;;;10.43;;
15693;SDS011;7947;48.834;9.132;2024-03-08T15:32:50;18.03;;;9.93;;
15693;SDS011;7947;48.834;9.132;2024-03-08T15:35:57;16.73;;;10.13;;
15693;SDS011;7947;48.834;9.132;2024-03-08T15:39:05;19.80;;;9.70;;
15693;SDS011;7947;48.834;9.132;2024-03-08T15:42:12;21.93;;;11.33;;
15693;SDS011;7947;48.834;9.132;2024-03-08T15:45:16;18.90;;;8.80;;
15693;SDS011;7947;48.834;9.132;2024-03-08T15:48:19;17.60;;;9.83;;
15693;SDS011;7947;48.834;9.132;2024-03-08T15:51:22;15.83;;;10.07;;
15693;SDS011;7947;48.834;9.132;2024-03-08T15:54:25;18.77;;;9.97;;
15693;SDS011;7947;48.834;9.132;2024-03-08T15:57:29;21.50;;;9.97;;
15693;SDS011;7947;48.834;9.132;2024-03-08T16:00:32;17.47;;;9.90;;
15693;SDS011;7947;48.834;9.132;2024-03-08T16:03:37;17.17;;;8.87;;
15693;SDS011;7947;48.834;9.132;2024-03-08T16:06:40;17.40;;;9.87;;
15693;SDS011;7947;48.834;9.132;2024-03-08T16:09:43;16.80;;;10.13;;
15693;SDS011;7947;48.834;9.132;2024-03-08T16:12:47;17.50;;;10.50;;
15693;SDS011;7947;48.834;9.132;2024-03-08T16:15:50;16.57;;;9.97;;
15693;SDS011;7947;48.834;9.132;2024-03-08T16:18:56;17.00;;;10.67;;
15693;SDS011;7947;48.834;9.132;2024-03-08T16:21:59;17.23;;;10.10;;
15693;SDS011;7947;48.834;9.132;2024-03-08T16:25:02;16.80;;;10.33;;
15693;SDS011;7947;48.834;9.132;2024-03-08T16:28:07;17.40;;;9.77;;
15693;SDS011;7947;48.834;9.132;2024-03-08T16:31:12;17.67;;;9.47;;
15693;SDS011;7947;48.834;9.132;2024-03-08T16:34:16;18.73;;;10.27;;
15693;SDS011;7947;48.834;9.132;2024-03-08T16:37:19;17.87;;;8.97;;
15693;SDS011;7947;48.834;9.132;2024-03-08T16:40:23;17.80;;;9.77;;
15693;SDS011;7947;48.834;9.132;2024-03-08T16:43:28;18.50;;;10.07;;
15693;SDS011;7947;48.834;9.132;2024-03-08T16:46:30;15.27;;;9.03;;
15693;SDS011;7947;48.834;9.132;2024-03-08T16:49:39;18.23;;;9.57;;
15693;SDS011;7947;48.834;9.132;2024-03-08T16:52:43;16.70;;;8.33;;
15693;SDS011;7947;48.834;9.132;2024-03-08T16:55:47;16.60;;;8.87;;
15693;SDS011;7947;48.834;9.132;2024-03-08T16:58:54;21.30;;;10.03;;
15693;SDS011;7947;48.834;9.132;2024-03-08T17:01:57;14.87;;;8.77;;
15693;SDS011;7947;48.834;9.132;2024-03-08T17:05:02;16.43;;;9.37;;
15693;SDS011;7947;48.834;9.132;2024-03-08T17:08:07;17.83;;;9.90;;
15693;SDS011;7947;48.834;9.132;2024-03-08T17:11:12;17.40;;;8.87;;
15693;SDS011;7947;48.834;9.132;2024-03-08T17:14:21;17.00;;;8.90;;
15693;SDS011;7947;48.834;9.132;2024-03-08T17:17:24;18.80;;;9.10;;
15693;SDS011;7947;48.834;9.132;2024-03-08T17:20:27;14.87;;;8.30;;
15693;SDS011;7947;48.834;9.132;2024-03-08T17:23:31;20.03;;;9.53;;
15693;SDS011;7947;48.834;9.132;2024-03-08T17:26:34;14.63;;;8.43;;
15693;SDS011;7947;48.834;9.132;2024-03-08T17:29:39;14.87;;;8.50;;
15693;SDS011;7947;48.834;9.132;2024-03-08T17:32:42;16.87;;;8.50;;
15693;SDS011;7947;48.834;9.132;2024-03-08T17:35:46;13.27;;;7.67;;
15693;SDS011;7947;48.834;9.132;2024-03-08T17:38:48;12.03;;;7.60;;
15693;SDS011;7947;48.834;9.132;2024-03-08T17:41:52;13.63;;;8.10;;
15693;SDS011;7947;48.834;9.132;2024-03-08T17:44:56;14.40;;;7.20;;
15693;SDS011;7947;48.834;9.132;2024-03-08T17:48:02;11.70;;;7.07;;
15693;SDS011;7947;48.834;9.132;2024-03-08T17:51:06;12.63;;;7.67;;
15693;SDS011;7947;48.834;9.132;2024-03-08T17:54:09;11.40;;;7.30;;
15693;SDS011;7947;48.834;9.132;2024-03-08T17:57:15;12.83;;;7.60;;
15693;SDS011;7947;48.834;9.132;2024-03-08T18:00:21;15.73;;;8.27;;
15693;SDS011;7947;48.834;9.132;2024-03-08T18:03:30;11.50;;;7.30;;
15693;SDS011;7947;48.834;9.132;2024-03-08T18:06:33;12.23;;;7.87;;
15693;SDS011;7947;48.834;9.132;2024-03-08T18:09:38;13.03;;;7.70;;
15693;SDS011;7947;48.834;9.132;2024-03-08T18:12:41;13.43;;;7.40;;
15693;SDS011;7947;48.834;9.132;2024-03-08T18:15:47;17.90;;;7.67;;
15693;SDS011;7947;48.834;9.132;2024-03-08T18:18:54;11.83;;;7.73;;
15693;SDS011;7947;48.834;9.132;2024-03-08T18:21:57;14.17;;;7.20;;
15693;SDS011;7947;48.834;9.132;2024-03-08T18:25:00;15.10;;;8.30;;
15693;SDS011;7947;48.834;9.132;2024-03-08T18:28:08;14.63;;;8.13;;
15693;SDS011;7947;48.834;9.132;2024-03-08T18:31:12;13.43;;;7.40;;
15693;SDS011;7947;48.834;9.132;2024-03-08T18:34:15;15.30;;;8.77;;
15693;SDS011;7947;48.834;9.132;2024-03-08T18:37:18;14.87;;;9.07;;
15693;SDS011;7947;48.834;9.132;2024-03-08T18:40:24;16.70;;;8.50;;